createdAt,value
2016-07-07T00:00:04.911Z,20.27
2016-07-07T00:01:06.129Z,20.34
2016-07-07T00:02:06.117Z,20.27
2016-07-07T00:03:06.098Z,20.3
2016-07-07T00:04:05.468Z,20.25
2016-07-07T00:05:06.059Z,20.31
2016-07-07T00:06:06.044Z,20.27
2016-07-07T00:07:05.416Z,20.31
2016-07-07T00:08:06.018Z,20.38
2016-07-07T00:09:05.382Z,20.5
2016-07-07T00:10:05.982Z,20.37
2016-07-07T00:11:05.950Z,20.31
2016-07-07T00:12:05.951Z,20.33
2016-07-07T00:13:05.937Z,20.22
2016-07-07T00:14:05.904Z,20.05
2016-07-07T00:15:05.908Z,20
2016-07-07T00:16:05.876Z,20.1
2016-07-07T00:17:05.865Z,20.07
2016-07-07T00:18:05.850Z,20.13
2016-07-07T00:19:05.835Z,20.08
2016-07-07T00:20:05.827Z,20.17
2016-07-07T00:21:05.798Z,20.1
2016-07-07T00:22:05.780Z,20
2016-07-07T00:23:05.767Z,19.98
2016-07-07T00:24:05.751Z,19.9
2016-07-07T00:25:05.749Z,19.8
2016-07-07T00:26:05.778Z,19.92
2016-07-07T00:27:05.707Z,19.8
2016-07-07T00:28:05.685Z,19.82
2016-07-07T00:29:05.060Z,19.86
2016-07-07T00:30:05.030Z,19.92
2016-07-07T00:31:05.629Z,19.92
2016-07-07T00:32:05.605Z,19.92
2016-07-07T00:33:04.976Z,19.95
2016-07-07T00:34:05.572Z,19.92
2016-07-07T00:35:04.960Z,19.83
2016-07-07T00:36:05.556Z,19.87
2016-07-07T00:37:05.534Z,19.83
2016-07-07T00:38:05.535Z,19.86
2016-07-07T00:39:05.524Z,19.75
2016-07-07T00:40:05.495Z,19.71
2016-07-07T00:41:04.870Z,19.7
2016-07-07T00:42:05.466Z,19.67
2016-07-07T00:43:05.447Z,19.62
2016-07-07T00:44:05.423Z,19.65
2016-07-07T00:45:04.794Z,19.55
2016-07-07T00:46:04.172Z,19.55
2016-07-07T00:47:04.760Z,19.57
2016-07-07T00:48:05.363Z,19.5
2016-07-07T00:49:04.733Z,19.57
2016-07-07T00:50:05.330Z,19.57
2016-07-07T00:51:05.307Z,19.55
2016-07-07T00:52:04.063Z,19.58
2016-07-07T00:53:05.288Z,19.55
2016-07-07T00:54:04.036Z,19.58
2016-07-07T00:55:05.251Z,19.52
2016-07-07T00:56:04.619Z,19.53
2016-07-07T00:57:04.597Z,19.58
2016-07-07T00:58:05.183Z,19.57
2016-07-07T00:59:05.178Z,19.57
2016-07-07T01:00:05.163Z,19.58
2016-07-07T01:01:04.518Z,19.57
2016-07-07T01:02:05.125Z,19.53
2016-07-07T01:03:05.115Z,19.38
2016-07-07T01:04:05.082Z,19.39
2016-07-07T01:05:05.064Z,19.25
2016-07-07T01:06:04.439Z,19.24
2016-07-07T01:07:05.040Z,19.28
2016-07-07T01:08:05.020Z,19.32
2016-07-07T01:09:04.998Z,19.38
2016-07-07T01:10:04.996Z,19.28
2016-07-07T01:11:04.979Z,19.4
2016-07-07T01:12:04.969Z,19.35
2016-07-07T01:13:04.947Z,19.4
2016-07-07T01:14:04.935Z,19.3
2016-07-07T01:15:04.903Z,19.32
2016-07-07T01:16:04.877Z,19.34
2016-07-07T01:17:04.893Z,19.27
2016-07-07T01:18:04.863Z,19.28
2016-07-07T01:19:04.228Z,19.28
2016-07-07T01:20:04.822Z,19.27
2016-07-07T01:21:04.816Z,19.27
2016-07-07T01:22:04.174Z,19.17
2016-07-07T01:23:04.754Z,19.28
2016-07-07T01:24:04.756Z,19.23
2016-07-07T01:25:04.736Z,19.27
2016-07-07T01:26:04.727Z,19.27
2016-07-07T01:27:04.713Z,19.28
2016-07-07T01:28:04.706Z,19.35
2016-07-07T01:29:04.689Z,19.25
2016-07-07T01:30:04.658Z,19.35
2016-07-07T01:31:04.649Z,19.17
2016-07-07T01:32:04.645Z,19.3
2016-07-07T01:33:04.598Z,19.32
2016-07-07T01:34:04.577Z,19.39
2016-07-07T01:35:04.582Z,19.28
2016-07-07T01:36:03.945Z,19.25
2016-07-07T01:37:04.548Z,19.39
2016-07-07T01:38:04.533Z,19.46
2016-07-07T01:39:04.515Z,19.5
2016-07-07T01:40:04.559Z,19.47
2016-07-07T01:41:04.475Z,19.47
2016-07-07T01:42:04.460Z,19.5
2016-07-07T01:43:04.452Z,19.57
2016-07-07T01:44:04.428Z,19.58
2016-07-07T01:45:04.415Z,19.4
2016-07-07T01:46:03.774Z,19.4
2016-07-07T01:47:04.374Z,19.39
2016-07-07T01:48:04.360Z,19.28
2016-07-07T01:49:04.352Z,19.21
2016-07-07T01:50:04.325Z,19.16
2016-07-07T01:51:04.312Z,19.24
2016-07-07T01:52:03.672Z,19.21
2016-07-07T01:53:04.279Z,19.17
2016-07-07T01:54:04.266Z,19.23
2016-07-07T01:55:04.245Z,19.17
2016-07-07T01:56:04.225Z,19.21
2016-07-07T01:57:03.582Z,19.16
2016-07-07T01:58:02.947Z,19.2
2016-07-07T01:59:03.545Z,19.23
2016-07-07T02:00:03.530Z,19.12
2016-07-07T02:01:04.130Z,19.15
2016-07-07T02:02:03.495Z,19.1
2016-07-07T02:03:04.113Z,19.06
2016-07-07T02:04:04.087Z,19.02
2016-07-07T02:05:04.074Z,19.01
2016-07-07T02:06:03.436Z,19.06
2016-07-07T02:07:04.037Z,18.99
2016-07-07T02:08:04.030Z,18.87
2016-07-07T02:09:04.009Z,19.02
2016-07-07T02:10:03.986Z,19.1
2016-07-07T02:11:03.356Z,19.07
2016-07-07T02:12:03.945Z,19.17
2016-07-07T02:13:03.926Z,19.17
2016-07-07T02:14:03.915Z,19.2
2016-07-07T02:15:03.890Z,19.28
2016-07-07T02:16:03.263Z,19.27
2016-07-07T02:17:03.877Z,19.3
2016-07-07T02:18:03.843Z,19.23
2016-07-07T02:19:03.832Z,19.2
2016-07-07T02:20:03.811Z,19.12
2016-07-07T02:21:03.196Z,19.27
2016-07-07T02:22:02.560Z,19.38
2016-07-07T02:23:03.773Z,19.25
2016-07-07T02:24:03.151Z,19.27
2016-07-07T02:25:03.126Z,19.27
2016-07-07T02:26:03.709Z,19.24
2016-07-07T02:27:03.096Z,19.23
2016-07-07T02:28:03.679Z,19.12
2016-07-07T02:29:03.683Z,19.13
2016-07-07T02:30:03.658Z,19.15
2016-07-07T02:31:03.640Z,19.2
2016-07-07T02:32:03.632Z,19.12
2016-07-07T02:33:03.602Z,19.01
2016-07-07T02:34:03.578Z,19.01
2016-07-07T02:35:03.573Z,19.07
2016-07-07T02:36:02.939Z,18.97
2016-07-07T02:37:03.530Z,19.1
2016-07-07T02:38:02.901Z,19.06
2016-07-07T02:39:03.500Z,19.1
2016-07-07T02:40:03.493Z,19.16
2016-07-07T02:41:03.478Z,19.2
2016-07-07T02:42:03.450Z,19.13
2016-07-07T02:43:02.829Z,19.25
2016-07-07T02:44:02.807Z,19.07
2016-07-07T02:45:03.395Z,19.23
2016-07-07T02:46:03.365Z,19.13
2016-07-07T02:47:02.739Z,19.34
2016-07-07T02:48:03.357Z,19.24
2016-07-07T02:49:03.324Z,19.35
2016-07-07T02:50:03.309Z,19.42
2016-07-07T02:51:03.301Z,19.4
2016-07-07T02:52:02.671Z,19.31
2016-07-07T02:53:03.261Z,19.31
2016-07-07T02:54:03.244Z,19.21
2016-07-07T02:55:02.001Z,19.16
2016-07-07T02:56:03.234Z,19.21
2016-07-07T02:57:02.591Z,19.2
2016-07-07T02:58:03.189Z,19.15
2016-07-07T02:59:03.175Z,19.24
2016-07-07T03:00:03.163Z,19.07
2016-07-07T03:01:03.138Z,19.23
2016-07-07T03:02:03.118Z,19.15
2016-07-07T03:03:03.103Z,19.17
2016-07-07T03:04:03.089Z,19.23
2016-07-07T03:05:03.068Z,19.2
2016-07-07T03:06:03.051Z,19.16
2016-07-07T03:07:03.032Z,19.12
2016-07-07T03:08:02.417Z,19.05
2016-07-07T03:09:03.002Z,19.12
2016-07-07T03:10:02.993Z,19.1
2016-07-07T03:11:02.974Z,19.01
2016-07-07T03:12:02.335Z,19.01
2016-07-07T03:13:02.939Z,18.91
2016-07-07T03:14:02.304Z,18.93
2016-07-07T03:15:02.902Z,18.75
2016-07-07T03:16:02.899Z,18.75
2016-07-07T03:17:02.868Z,18.72
2016-07-07T03:18:02.237Z,18.74
2016-07-07T03:19:02.214Z,18.69
2016-07-07T03:20:02.812Z,18.72
2016-07-07T03:21:02.799Z,18.64
2016-07-07T03:22:02.766Z,18.57
2016-07-07T03:23:02.128Z,18.62
2016-07-07T03:24:02.123Z,18.6
2016-07-07T03:25:02.114Z,18.64
2016-07-07T03:26:02.103Z,18.64
2016-07-07T03:27:02.676Z,18.71
2016-07-07T03:28:02.675Z,18.66
2016-07-07T03:29:02.043Z,18.74
2016-07-07T03:30:02.024Z,18.62
2016-07-07T03:31:02.624Z,18.76
2016-07-07T03:32:02.607Z,18.75
2016-07-07T03:33:01.972Z,18.78
2016-07-07T03:34:02.573Z,18.71
2016-07-07T03:35:02.547Z,18.78
2016-07-07T03:36:02.527Z,18.84
2016-07-07T03:37:02.523Z,19.01
2016-07-07T03:38:02.492Z,18.97
2016-07-07T03:39:02.490Z,18.97
2016-07-07T03:40:02.488Z,19.09
2016-07-07T03:41:02.460Z,19.13
2016-07-07T03:42:02.448Z,19.09
2016-07-07T03:43:01.818Z,19.17
2016-07-07T03:44:02.402Z,19.15
2016-07-07T03:45:02.388Z,19.15
2016-07-07T03:46:02.361Z,19.15
2016-07-07T03:47:02.346Z,19.13
2016-07-07T03:48:02.344Z,19.21
2016-07-07T03:49:02.331Z,19.13
2016-07-07T03:50:01.671Z,19.12
2016-07-07T03:51:01.674Z,19.28
2016-07-07T03:52:02.283Z,19.28
2016-07-07T03:53:02.238Z,19.23
2016-07-07T03:54:02.234Z,19.2
2016-07-07T03:55:01.588Z,19.16
2016-07-07T03:56:02.194Z,19.12
2016-07-07T03:57:02.172Z,19.07
2016-07-07T03:58:01.532Z,18.97
2016-07-07T03:59:02.150Z,18.97
2016-07-07T04:00:02.135Z,18.83
2016-07-07T04:01:02.103Z,18.89
2016-07-07T04:02:01.475Z,18.96
2016-07-07T04:03:01.465Z,18.96
2016-07-07T04:04:01.440Z,18.96
2016-07-07T04:05:02.037Z,18.91
2016-07-07T04:06:02.023Z,18.86
2016-07-07T04:07:02.009Z,18.84
2016-07-07T04:08:01.982Z,18.91
2016-07-07T04:09:01.977Z,18.99
2016-07-07T04:10:01.949Z,19.01
2016-07-07T04:11:01.329Z,19.06
2016-07-07T04:12:01.303Z,18.97
2016-07-07T04:13:01.906Z,18.96
2016-07-07T04:14:01.883Z,19.05
2016-07-07T04:15:01.876Z,19.01
2016-07-07T04:16:01.857Z,18.99
2016-07-07T04:17:01.242Z,19.09
2016-07-07T04:18:01.833Z,18.99
2016-07-07T04:19:01.791Z,19.09
2016-07-07T04:20:01.797Z,19.17
2016-07-07T04:21:01.168Z,19.12
2016-07-07T04:22:01.150Z,19.1
2016-07-07T04:23:01.731Z,19.15
2016-07-07T04:24:01.711Z,19.05
2016-07-07T04:25:01.691Z,19.13
2016-07-07T04:26:01.693Z,19.13
2016-07-07T04:27:01.681Z,19.16
2016-07-07T04:28:01.041Z,19.17
2016-07-07T04:29:01.623Z,19.32
2016-07-07T04:30:01.610Z,19.21
2016-07-07T04:31:01.584Z,19.25
2016-07-07T04:32:01.587Z,19.2
2016-07-07T04:33:01.564Z,19.2
2016-07-07T04:34:00.923Z,19.25
2016-07-07T04:35:01.552Z,19.3
2016-07-07T04:36:01.520Z,19.24
2016-07-07T04:37:00.878Z,19.12
2016-07-07T04:38:01.506Z,19.2
2016-07-07T04:39:01.458Z,19.28
2016-07-07T04:40:01.444Z,19.15
2016-07-07T04:41:00.802Z,19.09
2016-07-07T04:42:00.812Z,19.01
2016-07-07T04:43:01.402Z,19.02
2016-07-07T04:44:01.385Z,18.99
2016-07-07T04:45:01.377Z,18.97
2016-07-07T04:46:00.748Z,18.91
2016-07-07T04:47:01.335Z,18.91
2016-07-07T04:48:00.703Z,18.76
2016-07-07T04:49:00.689Z,18.75
2016-07-07T04:50:01.260Z,18.79
2016-07-07T04:51:01.256Z,18.76
2016-07-07T04:52:00.627Z,18.74
2016-07-07T04:53:01.219Z,18.56
2016-07-07T04:54:00.580Z,18.66
2016-07-07T04:55:01.200Z,18.65
2016-07-07T04:56:00.575Z,18.6
2016-07-07T04:57:00.540Z,18.59
2016-07-07T04:58:01.133Z,18.69
2016-07-07T04:59:01.135Z,18.75
2016-07-07T05:00:01.098Z,18.72
2016-07-07T05:01:01.079Z,18.76
2016-07-07T05:02:01.068Z,18.78
2016-07-07T05:03:01.046Z,18.84
2016-07-07T05:04:01.036Z,18.93
2016-07-07T05:05:01.030Z,18.99
2016-07-07T05:06:01.011Z,18.93
2016-07-07T05:07:00.980Z,18.86
2016-07-07T05:08:00.361Z,18.78
2016-07-07T05:09:00.333Z,18.84
2016-07-07T05:10:00.950Z,18.89
2016-07-07T05:11:00.297Z,18.94
2016-07-07T05:12:00.896Z,18.97
2016-07-07T05:13:00.896Z,19.05
2016-07-07T05:14:00.867Z,19.05
2016-07-07T05:15:00.854Z,18.9
2016-07-07T05:16:00.846Z,18.99
2016-07-07T05:17:00.205Z,18.84
2016-07-07T05:17:59.571Z,18.75
2016-07-07T05:19:00.783Z,18.78
2016-07-07T05:19:59.534Z,18.78
2016-07-07T05:21:00.746Z,18.86
2016-07-07T05:22:00.127Z,18.94
2016-07-07T05:23:00.090Z,18.94
2016-07-07T05:24:00.685Z,18.94
2016-07-07T05:25:00.065Z,19.07
2016-07-07T05:26:00.666Z,19.05
2016-07-07T05:27:00.659Z,19.02
2016-07-07T05:28:00.029Z,19.09
2016-07-07T05:29:00.016Z,19.12
2016-07-07T05:30:00.609Z,19.07
2016-07-07T05:31:00.590Z,18.96
2016-07-07T05:32:00.572Z,18.97
2016-07-07T05:33:00.555Z,19.05
2016-07-07T05:34:00.534Z,18.99
2016-07-07T05:34:59.896Z,18.97
2016-07-07T05:36:00.504Z,18.94
2016-07-07T05:37:00.484Z,18.97
2016-07-07T05:38:00.484Z,18.87
2016-07-07T05:39:00.460Z,18.86
2016-07-07T05:39:59.820Z,18.82
2016-07-07T05:41:00.407Z,18.86
2016-07-07T05:42:00.403Z,19.09
2016-07-07T05:43:00.372Z,19.16
2016-07-07T05:43:59.744Z,19.2
2016-07-07T05:45:00.346Z,19.3
2016-07-07T05:46:00.335Z,19.13
2016-07-07T05:47:00.321Z,19.05
2016-07-07T05:48:00.295Z,19.05
2016-07-07T05:49:00.284Z,19.09
2016-07-07T05:50:00.263Z,19.12
2016-07-07T05:51:00.243Z,19.21
2016-07-07T05:52:00.234Z,19.3
2016-07-07T05:53:00.207Z,19.27
2016-07-07T05:53:58.941Z,19.35
2016-07-07T05:55:00.179Z,19.25
2016-07-07T05:55:59.543Z,19.27
2016-07-07T05:57:00.141Z,19.28
2016-07-07T05:57:58.892Z,19.3
2016-07-07T05:59:00.116Z,19.21
2016-07-07T06:00:00.102Z,19.21
2016-07-07T06:01:00.073Z,19.23
2016-07-07T06:01:59.430Z,19.31
2016-07-07T06:02:59.414Z,19.2
2016-07-07T06:04:00.036Z,19.31
2016-07-07T06:05:00.006Z,19.34
2016-07-07T06:05:59.980Z,19.47
2016-07-07T06:06:59.967Z,19.55
2016-07-07T06:07:59.959Z,19.58
2016-07-07T06:08:59.942Z,19.52
2016-07-07T06:09:59.924Z,19.49
2016-07-07T06:10:59.898Z,19.45
2016-07-07T06:11:59.878Z,19.32
2016-07-07T06:12:59.238Z,19.17
2016-07-07T06:13:59.857Z,19.23
2016-07-07T06:14:59.846Z,19.25
2016-07-07T06:15:59.203Z,19.32
2016-07-07T06:16:59.793Z,19.42
2016-07-07T06:17:59.787Z,19.53
2016-07-07T06:18:59.765Z,19.55
2016-07-07T06:19:59.146Z,19.64
2016-07-07T06:20:59.737Z,19.62
2016-07-07T06:21:59.726Z,19.67
2016-07-07T06:22:59.705Z,19.64
2016-07-07T06:23:59.687Z,19.67
2016-07-07T06:24:59.665Z,19.64
2016-07-07T06:25:59.655Z,19.58
2016-07-07T06:26:59.686Z,19.62
2016-07-07T06:27:59.003Z,19.57
2016-07-07T06:28:59.588Z,19.53
2016-07-07T06:29:59.574Z,19.45
2016-07-07T06:30:59.554Z,19.27
2016-07-07T06:31:59.547Z,19.25
2016-07-07T06:32:59.528Z,19.45
2016-07-07T06:33:58.886Z,19.43
2016-07-07T06:34:59.502Z,19.46
2016-07-07T06:35:59.483Z,19.4
2016-07-07T06:36:59.467Z,19.52
2016-07-07T06:37:58.814Z,19.52
2016-07-07T06:38:59.440Z,19.58
2016-07-07T06:39:58.787Z,19.64
2016-07-07T06:40:59.403Z,19.71
2016-07-07T06:41:58.754Z,19.67
2016-07-07T06:42:59.351Z,19.68
2016-07-07T06:43:59.362Z,19.6
2016-07-07T06:44:59.334Z,19.57
2016-07-07T06:45:58.696Z,19.57
2016-07-07T06:46:59.284Z,19.57
2016-07-07T06:47:59.280Z,19.5
2016-07-07T06:48:59.264Z,19.46
2016-07-07T06:49:59.251Z,19.32
2016-07-07T06:50:58.612Z,19.25
2016-07-07T06:51:59.214Z,19.27
2016-07-07T06:52:59.216Z,19.38
2016-07-07T06:53:59.166Z,19.64
2016-07-07T06:54:59.164Z,19.75
2016-07-07T06:55:59.152Z,19.65
2016-07-07T06:56:59.121Z,19.61
2016-07-07T06:57:59.106Z,19.49
2016-07-07T06:58:58.477Z,19.43
2016-07-07T06:59:59.079Z,19.5
2016-07-07T07:00:59.063Z,19.47
2016-07-07T07:01:58.429Z,19.4
2016-07-07T07:02:59.035Z,19.31
2016-07-07T07:03:58.392Z,19.24
2016-07-07T07:04:58.984Z,19.17
2016-07-07T07:05:58.971Z,19.2
2016-07-07T07:06:58.970Z,19.13
2016-07-07T07:07:58.922Z,19.3
2016-07-07T07:08:58.919Z,19.32
2016-07-07T07:09:58.910Z,19.55
2016-07-07T07:10:58.895Z,19.55
2016-07-07T07:11:58.877Z,19.43
2016-07-07T07:12:58.232Z,19.35
2016-07-07T07:13:58.829Z,19.25
2016-07-07T07:14:58.822Z,19.35
2016-07-07T07:15:58.810Z,19.31
2016-07-07T07:16:58.794Z,19.28
2016-07-07T07:17:58.770Z,19.42
2016-07-07T07:18:58.136Z,19.43
2016-07-07T07:19:58.099Z,19.52
2016-07-07T07:20:57.492Z,19.57
2016-07-07T07:21:58.707Z,19.65
2016-07-07T07:22:58.070Z,19.61
2016-07-07T07:23:58.666Z,19.57
2016-07-07T07:24:58.638Z,19.6
2016-07-07T07:25:58.632Z,19.5
2016-07-07T07:26:58.668Z,19.55
2016-07-07T07:27:58.607Z,19.57
2016-07-07T07:28:58.571Z,19.4
2016-07-07T07:29:58.569Z,19.38
2016-07-07T07:30:57.914Z,19.25
2016-07-07T07:31:58.538Z,19.27
2016-07-07T07:32:58.516Z,19.35
2016-07-07T07:33:58.502Z,19.52
2016-07-07T07:34:58.472Z,19.58
2016-07-07T07:35:58.454Z,19.8
2016-07-07T07:36:58.447Z,20
2016-07-07T07:37:58.435Z,20.19
2016-07-07T07:38:58.391Z,20.16
2016-07-07T07:39:58.385Z,20.27
2016-07-07T07:40:58.365Z,20.41
2016-07-07T07:41:57.741Z,20.42
2016-07-07T07:42:58.337Z,20.54
2016-07-07T07:43:58.315Z,20.63
2016-07-07T07:44:58.311Z,20.63
2016-07-07T07:45:58.300Z,20.66
2016-07-07T07:46:58.277Z,20.75
2016-07-07T07:47:58.270Z,20.79
2016-07-07T07:48:58.245Z,20.78
2016-07-07T07:49:58.211Z,20.73
2016-07-07T07:50:58.223Z,20.76
2016-07-07T07:51:58.188Z,20.72
2016-07-07T07:52:57.577Z,20.69
2016-07-07T07:53:56.916Z,20.81
2016-07-07T07:54:58.141Z,20.82
2016-07-07T07:55:58.119Z,20.85
2016-07-07T07:56:56.873Z,20.83
2016-07-07T07:57:58.087Z,20.9
2016-07-07T07:58:58.090Z,20.88
2016-07-07T07:59:58.066Z,20.87
2016-07-07T08:00:58.044Z,20.93
2016-07-07T08:01:57.396Z,20.98
2016-07-07T08:02:57.384Z,20.83
2016-07-07T08:03:57.994Z,20.96
2016-07-07T08:04:57.359Z,20.97
2016-07-07T08:05:57.956Z,20.87
2016-07-07T08:06:57.335Z,20.98
2016-07-07T08:07:57.928Z,20.94
2016-07-07T08:08:57.911Z,20.94
2016-07-07T08:09:57.897Z,21
2016-07-07T08:10:57.893Z,20.94
2016-07-07T08:11:57.247Z,20.96
2016-07-07T08:12:57.831Z,21.01
2016-07-07T08:13:57.831Z,21.03
2016-07-07T08:14:57.810Z,20.98
2016-07-07T08:15:57.784Z,20.98
2016-07-07T08:16:57.172Z,20.97
2016-07-07T08:17:57.762Z,20.96
2016-07-07T08:18:57.126Z,21.06
2016-07-07T08:19:57.116Z,20.98
2016-07-07T08:20:57.715Z,21.09
2016-07-07T08:21:57.702Z,21.11
2016-07-07T08:22:57.678Z,21.13
2016-07-07T08:23:57.644Z,21.09
2016-07-07T08:24:57.634Z,21.06
2016-07-07T08:25:57.617Z,21.12
2016-07-07T08:26:57.649Z,21.09
2016-07-07T08:27:56.980Z,21.12
2016-07-07T08:28:57.571Z,21.19
2016-07-07T08:29:56.945Z,21.08
2016-07-07T08:30:56.926Z,21.16
2016-07-07T08:31:57.539Z,21.19
2016-07-07T08:32:56.898Z,21.16
2016-07-07T08:33:56.882Z,21.15
2016-07-07T08:34:57.481Z,21.11
2016-07-07T08:35:57.470Z,21.16
2016-07-07T08:36:57.434Z,21.16
2016-07-07T08:37:57.446Z,21.09
2016-07-07T08:38:57.409Z,21.19
2016-07-07T08:39:56.764Z,21.18
2016-07-07T08:40:56.769Z,21.15
2016-07-07T08:41:57.373Z,21.24
2016-07-07T08:42:57.341Z,21.27
2016-07-07T08:43:57.320Z,21.31
2016-07-07T08:44:57.318Z,21.31
2016-07-07T08:45:56.673Z,21.22
2016-07-07T08:46:57.289Z,21.28
2016-07-07T08:47:56.651Z,21.26
2016-07-07T08:48:57.257Z,21.28
2016-07-07T08:49:57.246Z,21.21
2016-07-07T08:50:57.215Z,21.27
2016-07-07T08:51:57.207Z,21.22
2016-07-07T08:52:57.179Z,21.19
2016-07-07T08:53:57.179Z,21.22
2016-07-07T08:54:57.156Z,21.26
2016-07-07T08:55:56.512Z,21.26
2016-07-07T08:56:57.122Z,21.34
2016-07-07T08:57:56.494Z,21.36
2016-07-07T08:58:56.474Z,21.38
2016-07-07T08:59:57.070Z,21.31
2016-07-07T09:00:57.063Z,21.33
2016-07-07T09:01:57.041Z,21.37
2016-07-07T09:02:57.038Z,21.33
2016-07-07T09:03:57.015Z,21.43
2016-07-07T09:04:57.012Z,21.4
2016-07-07T09:05:56.976Z,21.42
2016-07-07T09:06:56.992Z,21.37
2016-07-07T09:07:56.954Z,21.34
2016-07-07T09:08:56.932Z,21.11
2016-07-07T09:09:56.303Z,21.15
2016-07-07T09:10:56.908Z,21.15
2016-07-07T09:11:56.273Z,21.11
2016-07-07T09:12:56.859Z,20.76
2016-07-07T09:13:56.840Z,20.5
2016-07-07T09:14:56.825Z,20.35
2016-07-07T09:15:56.832Z,20.51
2016-07-07T09:16:56.790Z,20.66
2016-07-07T09:17:56.803Z,20.66
2016-07-07T09:18:56.144Z,20.61
2016-07-07T09:19:56.750Z,20.79
2016-07-07T09:20:56.725Z,20.79
2016-07-07T09:21:56.722Z,20.71
2016-07-07T09:22:56.715Z,20.79
2016-07-07T09:23:56.700Z,20.76
2016-07-07T09:24:56.054Z,20.75
2016-07-07T09:25:56.648Z,20.73
2016-07-07T09:26:56.704Z,20.6
2016-07-07T09:27:55.999Z,20.66
2016-07-07T09:28:56.601Z,20.75
2016-07-07T09:29:55.982Z,20.81
2016-07-07T09:30:56.563Z,20.87
2016-07-07T09:31:56.558Z,20.97
2016-07-07T09:32:56.546Z,21.08
2016-07-07T09:33:55.898Z,21.22
2016-07-07T09:34:56.500Z,21.36
2016-07-07T09:35:56.484Z,21.4
2016-07-07T09:36:56.466Z,21.34
2016-07-07T09:37:55.822Z,21.36
2016-07-07T09:38:56.432Z,21.42
2016-07-07T09:39:56.421Z,21.48
2016-07-07T09:40:56.407Z,21.48
2016-07-07T09:41:56.386Z,21.45
2016-07-07T09:42:56.376Z,21.49
2016-07-07T09:43:56.366Z,21.48
2016-07-07T09:44:56.344Z,21.42
2016-07-07T09:45:55.725Z,21.37
2016-07-07T09:46:56.324Z,21.55
2016-07-07T09:47:55.682Z,21.49
2016-07-07T09:48:56.283Z,21.48
2016-07-07T09:49:56.266Z,21.53
2016-07-07T09:50:55.635Z,21.52
2016-07-07T09:51:56.237Z,21.51
2016-07-07T09:52:56.220Z,21.48
2016-07-07T09:53:55.583Z,21.51
2016-07-07T09:54:56.171Z,21.53
2016-07-07T09:55:56.171Z,21.53
2016-07-07T09:56:56.146Z,21.49
2016-07-07T09:57:56.140Z,21.58
2016-07-07T09:58:56.117Z,21.49
2016-07-07T09:59:56.110Z,21.55
2016-07-07T10:00:56.079Z,21.59
2016-07-07T10:01:56.055Z,21.63
2016-07-07T10:02:56.063Z,21.66
2016-07-07T10:03:56.027Z,21.58
2016-07-07T10:04:56.023Z,21.42
2016-07-07T10:05:56.001Z,21.37
2016-07-07T10:06:55.382Z,21.33
2016-07-07T10:07:55.966Z,21.33
2016-07-07T10:08:55.947Z,21.24
2016-07-07T10:09:55.932Z,21.34
2016-07-07T10:10:55.931Z,21.28
2016-07-07T10:11:55.303Z,21.24
2016-07-07T10:12:55.904Z,21.31
2016-07-07T10:13:55.893Z,21.24
2016-07-07T10:14:55.251Z,21.3
2016-07-07T10:15:55.844Z,21.18
2016-07-07T10:16:55.841Z,21.28
2016-07-07T10:17:55.813Z,21.33
2016-07-07T10:18:55.801Z,21.27
2016-07-07T10:19:55.780Z,21.33
2016-07-07T10:20:55.753Z,21.3
2016-07-07T10:21:55.761Z,21.24
2016-07-07T10:22:55.123Z,21.22
2016-07-07T10:23:55.114Z,21.24
2016-07-07T10:24:55.096Z,21.22
2016-07-07T10:25:55.705Z,21.28
2016-07-07T10:26:55.055Z,21.18
2016-07-07T10:27:55.663Z,21.24
2016-07-07T10:28:55.651Z,21.27
2016-07-07T10:29:55.638Z,21.34
2016-07-07T10:30:55.619Z,21.26
2016-07-07T10:31:55.606Z,21.26
2016-07-07T10:32:54.947Z,21.27
2016-07-07T10:33:55.562Z,21.28
2016-07-07T10:34:55.552Z,21.28
2016-07-07T10:35:55.521Z,21.34
2016-07-07T10:36:55.503Z,21.36
2016-07-07T10:37:54.868Z,21.37
2016-07-07T10:38:55.482Z,21.3
2016-07-07T10:39:55.464Z,21.33
2016-07-07T10:40:54.220Z,21.37
2016-07-07T10:41:55.420Z,21.36
2016-07-07T10:42:54.176Z,21.37
2016-07-07T10:43:55.401Z,21.36
2016-07-07T10:44:55.380Z,21.38
2016-07-07T10:45:54.736Z,21.43
2016-07-07T10:46:55.346Z,21.42
2016-07-07T10:47:55.342Z,21.42
2016-07-07T10:48:55.334Z,21.43
2016-07-07T10:49:55.298Z,21.36
2016-07-07T10:50:55.291Z,21.42
2016-07-07T10:51:55.277Z,21.42
2016-07-07T10:52:55.257Z,21.37
2016-07-07T10:53:55.249Z,21.56
2016-07-07T10:54:54.613Z,21.42
2016-07-07T10:55:54.600Z,21.45
2016-07-07T10:56:54.587Z,21.46
2016-07-07T10:57:54.567Z,21.49
2016-07-07T10:58:55.173Z,21.56
2016-07-07T10:59:55.148Z,21.51
2016-07-07T11:00:55.129Z,21.51
2016-07-07T11:01:55.124Z,21.56
2016-07-07T11:02:54.486Z,21.56
2016-07-07T11:03:55.088Z,21.55
2016-07-07T11:04:54.460Z,21.63
2016-07-07T11:05:55.068Z,21.53
2016-07-07T11:06:55.037Z,21.52
2016-07-07T11:07:55.016Z,21.55
2016-07-07T11:08:55.009Z,21.64
2016-07-07T11:09:54.990Z,21.59
2016-07-07T11:10:54.972Z,21.64
2016-07-07T11:11:54.958Z,21.67
2016-07-07T11:12:54.954Z,21.61
2016-07-07T11:13:54.923Z,21.61
2016-07-07T11:14:54.893Z,21.59
2016-07-07T11:15:54.898Z,21.66
2016-07-07T11:16:54.868Z,21.59
2016-07-07T11:17:54.240Z,21.66
2016-07-07T11:18:54.846Z,21.75
2016-07-07T11:19:54.835Z,21.83
2016-07-07T11:20:54.227Z,21.86
2016-07-07T11:21:54.801Z,21.98
2016-07-07T11:22:54.183Z,21.94
2016-07-07T11:23:54.753Z,21.96
2016-07-07T11:24:54.765Z,22.02
2016-07-07T11:25:54.124Z,21.94
2016-07-07T11:26:54.106Z,22.04
2016-07-07T11:27:54.087Z,22.05
2016-07-07T11:28:54.686Z,22.08
2016-07-07T11:29:54.673Z,22.06
2016-07-07T11:30:54.656Z,22.05
2016-07-07T11:31:54.651Z,22.02
2016-07-07T11:32:54.624Z,22.01
2016-07-07T11:33:54.136Z,22.02
2016-07-07T11:34:54.606Z,21.94
2016-07-07T11:35:54.577Z,21.94
2016-07-07T11:36:53.942Z,21.93
2016-07-07T11:37:54.548Z,21.98
2016-07-07T11:38:53.920Z,21.94
2016-07-07T11:39:53.275Z,21.98
2016-07-07T11:40:54.495Z,22.04
2016-07-07T11:41:53.454Z,22.06
2016-07-07T11:42:54.456Z,22.11
2016-07-07T11:43:53.840Z,22.12
2016-07-07T11:44:54.443Z,22.15
2016-07-07T11:45:54.422Z,22.17
2016-07-07T11:46:54.410Z,22.11
2016-07-07T11:47:53.779Z,22.12
2016-07-07T11:48:54.369Z,22.14
2016-07-07T11:49:54.362Z,22.17
2016-07-07T11:50:54.341Z,22.29
2016-07-07T11:51:53.714Z,22.29
2016-07-07T11:52:54.315Z,22.19
2016-07-07T11:53:54.298Z,22.23
2016-07-07T11:54:54.276Z,22.26
2016-07-07T11:55:53.665Z,22.29
2016-07-07T11:56:53.642Z,22.19
2016-07-07T11:57:54.235Z,22.3
2016-07-07T11:58:53.607Z,22.19
2016-07-07T11:59:53.584Z,22.29
2016-07-07T12:00:54.186Z,22.35
2016-07-07T12:01:53.557Z,22.33
2016-07-07T12:02:53.554Z,22.31
2016-07-07T12:03:54.142Z,22.27
2016-07-07T12:04:53.563Z,22.27
2016-07-07T12:05:54.145Z,22.26
2016-07-07T12:06:54.100Z,22.31
2016-07-07T12:07:54.074Z,22.38
2016-07-07T12:08:54.061Z,22.27
2016-07-07T12:09:53.436Z,22.35
2016-07-07T12:10:54.029Z,22.35
2016-07-07T12:11:54.012Z,22.29
2016-07-07T12:12:52.787Z,22.36
2016-07-07T12:13:54.006Z,22.35
2016-07-07T12:14:53.978Z,22.31
2016-07-07T12:15:53.958Z,22.33
2016-07-07T12:16:53.934Z,22.36
2016-07-07T12:17:53.927Z,22.3
2016-07-07T12:18:53.906Z,22.3
2016-07-07T12:19:53.891Z,22.35
2016-07-07T12:20:53.874Z,22.35
2016-07-07T12:21:53.253Z,22.29
2016-07-07T12:22:53.839Z,22.27
2016-07-07T12:23:53.825Z,22.33
2016-07-07T12:24:53.823Z,22.33
2016-07-07T12:25:53.186Z,22.3
2016-07-07T12:26:53.158Z,22.38
2016-07-07T12:27:53.153Z,22.33
2016-07-07T12:28:53.759Z,22.38
2016-07-07T12:29:53.729Z,22.42
2016-07-07T12:30:52.490Z,22.33
2016-07-07T12:31:52.478Z,22.39
2016-07-07T12:32:53.678Z,22.44
2016-07-07T12:33:53.070Z,22.49
2016-07-07T12:34:53.669Z,22.52
2016-07-07T12:35:53.625Z,22.45
2016-07-07T12:36:53.605Z,22.48
2016-07-07T12:37:53.606Z,22.49
2016-07-07T12:38:53.596Z,22.54
2016-07-07T12:39:53.574Z,22.46
2016-07-07T12:40:53.569Z,22.48
2016-07-07T12:41:52.932Z,22.54
2016-07-07T12:42:53.520Z,22.48
2016-07-07T12:43:53.515Z,22.49
2016-07-07T12:44:52.885Z,22.49
2016-07-07T12:45:53.500Z,22.45
2016-07-07T12:46:53.468Z,22.57
2016-07-07T12:47:52.841Z,22.52
2016-07-07T12:48:53.433Z,22.57
2016-07-07T12:49:52.814Z,22.46
2016-07-07T12:50:52.795Z,22.44
2016-07-07T12:51:53.340Z,22.45
2016-07-07T12:52:53.323Z,22.48
2016-07-07T12:53:52.693Z,22.51
2016-07-07T12:54:53.281Z,22.52